aviador You're here:

KCDI Decoded Metar

in
Report Time2017-08-23 02:05:00
UTC Time2017-08-23 02:11:48
Flight Rules vfr VFR
Wind210° at 03 kt
W.Decomp.*RWY 22: 3.0 kt HW 0.5 kt LCW
W.Rank210° ranks 2
Current wind is below 210° avg. (5.8)
Visibility9999 m
Phenomena:N/A
Clouds:N/A
Expected CloudBase > 800 ft AGL from Temp-Dew spread
CeilingNone
Temp22°C
Dew Point20°C (88% RH)
QNH1013 hPa
Raw Report
METAR KCDI 230205Z AUTO 21003KT 10SM CLR 22/20 A2990 RMK AO2 T02170196=

Extra information for KCDI:More info

Social comments